createdAt,value
2018-12-01T00:02:14.922Z,46.77
2018-12-01T00:04:42.527Z,45.17
2018-12-01T00:07:10.778Z,47.57
2018-12-01T00:09:38.234Z,44.53
2018-12-01T00:12:05.840Z,43.30
2018-12-01T00:14:33.450Z,43.23
2018-12-01T00:17:00.998Z,45.63
2018-12-01T00:19:28.459Z,46.73
2018-12-01T00:21:55.880Z,43.90
2018-12-01T00:24:23.418Z,46.50
2018-12-01T00:26:50.844Z,44.20
2018-12-01T00:29:18.252Z,46.37
2018-12-01T00:31:45.790Z,46.03
2018-12-01T00:34:13.199Z,44.07
2018-12-01T00:36:40.625Z,50.07
2018-12-01T00:39:08.086Z,50.67
2018-12-01T00:41:35.531Z,47.30
2018-12-01T00:44:02.949Z,45.70
2018-12-01T00:46:30.836Z,53.00
2018-12-01T00:48:58.245Z,48.63
2018-12-01T00:51:25.793Z,51.53
2018-12-01T00:53:53.226Z,48.10
2018-12-01T00:56:20.689Z,46.70
2018-12-01T00:58:48.105Z,49.47
2018-12-01T01:01:15.943Z,52.73
2018-12-01T01:03:43.504Z,49.03
2018-12-01T01:06:11.162Z,46.90
2018-12-01T01:08:38.644Z,50.80
2018-12-01T01:11:06.282Z,45.80
2018-12-01T01:13:33.765Z,48.73
2018-12-01T01:16:01.301Z,45.80
2018-12-01T01:18:28.725Z,49.17
2018-12-01T01:20:56.301Z,46.53
2018-12-01T01:23:23.976Z,47.07
2018-12-01T01:25:51.728Z,50.07
2018-12-01T01:28:19.357Z,47.27
2018-12-01T01:30:47.165Z,48.87
2018-12-01T01:33:28.506Z,51.73
2018-12-01T01:35:56.024Z,50.17
2018-12-01T01:38:23.521Z,51.07
2018-12-01T01:40:56.991Z,51.70
2018-12-01T01:43:24.424Z,53.83
2018-12-01T01:45:51.996Z,49.20
2018-12-01T01:48:19.439Z,46.40
2018-12-01T01:50:46.880Z,49.60
2018-12-01T01:53:14.380Z,50.57
2018-12-01T01:55:41.886Z,47.07
2018-12-01T01:58:09.324Z,49.03
2018-12-01T02:00:36.766Z,50.67
2018-12-01T02:03:04.313Z,49.87
2018-12-01T02:05:43.382Z,47.27
2018-12-01T02:08:10.804Z,51.40
2018-12-01T02:10:38.225Z,47.73
2018-12-01T02:13:05.651Z,48.80
2018-12-01T02:15:33.053Z,49.50
2018-12-01T02:18:00.494Z,50.00
2018-12-01T02:20:27.894Z,48.30
2018-12-01T02:22:55.348Z,47.43
2018-12-01T02:25:22.882Z,46.30
2018-12-01T02:27:50.424Z,43.93
2018-12-01T02:30:18.961Z,51.13
2018-12-01T02:32:46.776Z,44.90
2018-12-01T02:35:21.573Z,46.43
2018-12-01T02:37:49.035Z,50.13
2018-12-01T02:40:16.457Z,47.97
2018-12-01T02:42:44.020Z,48.07
2018-12-01T02:45:22.842Z,47.97
2018-12-01T02:47:50.276Z,49.23
2018-12-01T02:50:22.739Z,55.43
2018-12-01T02:52:50.317Z,47.70
2018-12-01T02:55:17.740Z,49.40
2018-12-01T02:57:45.322Z,50.60
2018-12-01T03:00:13.064Z,52.47
2018-12-01T03:02:40.496Z,53.60
2018-12-01T03:05:08.993Z,52.27
2018-12-01T03:07:36.445Z,54.70
2018-12-01T03:10:06.072Z,54.97
2018-12-01T03:12:33.493Z,55.13
2018-12-01T03:15:00.881Z,54.60
2018-12-01T03:17:28.314Z,55.97
2018-12-01T03:19:55.783Z,60.30
2018-12-01T03:22:23.197Z,56.83
2018-12-01T03:24:50.605Z,53.87
2018-12-01T03:27:18.070Z,54.97
2018-12-01T03:29:45.498Z,56.20
2018-12-01T03:32:13.003Z,55.00
2018-12-01T03:34:40.426Z,55.20
2018-12-01T03:37:08.760Z,50.57
2018-12-01T03:39:36.177Z,59.57
2018-12-01T03:42:03.649Z,55.17
2018-12-01T03:44:31.129Z,59.50
2018-12-01T03:46:58.593Z,56.37
2018-12-01T03:49:25.992Z,59.50
2018-12-01T03:51:53.429Z,60.03
2018-12-01T03:54:20.868Z,58.47
2018-12-01T03:56:48.289Z,61.03
2018-12-01T03:59:15.742Z,60.83
2018-12-01T04:01:43.220Z,63.50
2018-12-01T04:04:10.645Z,61.30
2018-12-01T04:06:38.157Z,58.60
2018-12-01T04:09:13.136Z,64.10
2018-12-01T04:11:41.692Z,58.57
2018-12-01T04:14:09.394Z,63.80
2018-12-01T04:16:36.829Z,59.83
2018-12-01T04:19:04.718Z,57.53
2018-12-01T04:21:32.131Z,56.77
2018-12-01T04:23:59.581Z,58.03
2018-12-01T04:26:26.985Z,57.20
2018-12-01T04:28:54.429Z,58.17
2018-12-01T04:31:21.882Z,57.40
2018-12-01T04:33:49.338Z,60.60
2018-12-01T04:36:16.740Z,57.37
2018-12-01T04:38:44.186Z,53.20
2018-12-01T04:41:11.601Z,54.17
2018-12-01T04:43:39.029Z,56.10
2018-12-01T04:46:06.454Z,58.50
2018-12-01T04:48:33.960Z,60.80
2018-12-01T04:51:01.364Z,67.37
2018-12-01T04:53:28.809Z,61.93
2018-12-01T04:55:56.211Z,60.33
2018-12-01T04:58:23.644Z,65.47
2018-12-01T05:00:51.047Z,58.83
2018-12-01T05:03:19.327Z,64.43
2018-12-01T05:05:46.717Z,63.40
2018-12-01T05:08:14.134Z,63.47
2018-12-01T05:10:41.525Z,62.33
2018-12-01T05:13:09.017Z,62.43
2018-12-01T05:15:36.417Z,60.27
2018-12-01T05:18:03.857Z,61.20
2018-12-01T05:20:31.259Z,63.53
2018-12-01T05:22:58.701Z,62.00
2018-12-01T05:25:26.254Z,63.97
2018-12-01T05:27:53.698Z,65.33
2018-12-01T05:30:21.129Z,56.50
2018-12-01T05:32:48.594Z,55.23
2018-12-01T05:35:18.354Z,62.23
2018-12-01T05:37:45.781Z,61.10
2018-12-01T05:40:13.430Z,56.97
2018-12-01T05:42:40.832Z,60.60
2018-12-01T05:45:11.417Z,60.47
2018-12-01T05:47:38.833Z,61.23
2018-12-01T05:50:07.300Z,60.27
2018-12-01T05:52:34.742Z,65.50
2018-12-01T05:55:02.408Z,60.43
2018-12-01T05:57:29.890Z,62.30
2018-12-01T05:59:57.321Z,57.33
2018-12-01T06:02:24.735Z,61.50
2018-12-01T06:04:52.154Z,58.00
2018-12-01T06:07:19.564Z,57.30
2018-12-01T06:09:46.996Z,63.83
2018-12-01T06:12:14.545Z,59.30
2018-12-01T06:14:42.026Z,55.30
2018-12-01T06:17:09.403Z,55.60
2018-12-01T06:19:36.837Z,58.17
2018-12-01T06:22:04.605Z,55.00
2018-12-01T06:24:32.028Z,55.10
2018-12-01T06:26:59.465Z,58.10
2018-12-01T06:29:26.916Z,65.47
2018-12-01T06:31:54.316Z,66.60
2018-12-01T06:34:21.743Z,63.37
2018-12-01T06:36:49.174Z,59.07
2018-12-01T06:39:16.604Z,57.47
2018-12-01T06:41:44.025Z,57.40
2018-12-01T06:44:11.467Z,65.80
2018-12-01T06:46:38.859Z,61.53
2018-12-01T06:49:06.318Z,67.17
2018-12-01T06:51:33.720Z,60.97
2018-12-01T06:54:01.235Z,63.13
2018-12-01T06:56:28.637Z,60.80
2018-12-01T06:58:56.053Z,61.33
2018-12-01T07:01:23.550Z,61.70
2018-12-01T07:03:50.982Z,68.00
2018-12-01T07:06:18.409Z,63.07
2018-12-01T07:08:45.828Z,66.00
2018-12-01T07:11:13.256Z,64.17
2018-12-01T07:13:40.703Z,63.57
2018-12-01T07:16:08.133Z,62.87
2018-12-01T07:18:46.980Z,60.63
2018-12-01T07:21:14.366Z,68.00
2018-12-01T07:23:41.802Z,62.07
2018-12-01T07:26:09.316Z,69.17
2018-12-01T07:28:36.728Z,65.30
2018-12-01T07:31:04.566Z,63.90
2018-12-01T07:33:32.057Z,62.63
2018-12-01T07:35:59.491Z,68.17
2018-12-01T07:38:26.966Z,71.90
2018-12-01T07:40:54.424Z,71.90
2018-12-01T07:43:21.848Z,74.57
2018-12-01T07:45:49.289Z,64.57
2018-12-01T07:48:16.665Z,67.50
2018-12-01T07:50:44.189Z,71.87
2018-12-01T07:53:11.632Z,79.20
2018-12-01T07:55:39.118Z,69.63
2018-12-01T07:58:06.510Z,66.80
2018-12-01T08:00:34.027Z,77.10
2018-12-01T08:03:01.479Z,71.10
2018-12-01T08:05:28.974Z,72.60
2018-12-01T08:07:56.359Z,75.93
2018-12-01T08:10:23.865Z,73.03
2018-12-01T08:12:51.290Z,78.57
2018-12-01T08:15:18.769Z,74.37
2018-12-01T08:17:46.517Z,73.40
2018-12-01T08:20:14.874Z,70.90
2018-12-01T08:22:42.324Z,68.47
2018-12-01T08:25:17.970Z,70.13
2018-12-01T08:27:46.790Z,65.10
2018-12-01T08:30:17.467Z,62.23
2018-12-01T08:32:44.905Z,65.43
2018-12-01T08:35:12.452Z,63.27
2018-12-01T08:37:39.860Z,63.57
2018-12-01T08:40:09.862Z,64.53
2018-12-01T08:42:37.285Z,63.63
2018-12-01T08:45:07.456Z,57.93
2018-12-01T08:47:34.854Z,65.53
2018-12-01T08:50:02.686Z,56.07
2018-12-01T08:52:30.086Z,58.47
2018-12-01T08:54:57.511Z,58.47
2018-12-01T08:57:24.901Z,62.67
2018-12-01T08:59:52.469Z,62.97
2018-12-01T09:02:19.904Z,51.33
2018-12-01T09:04:47.359Z,56.50
2018-12-01T09:07:14.778Z,54.40
2018-12-01T09:09:43.589Z,50.63
2018-12-01T09:12:11.032Z,51.50
2018-12-01T09:14:38.528Z,53.23
2018-12-01T09:17:07.253Z,55.30
2018-12-01T09:19:35.912Z,52.60
2018-12-01T09:22:03.515Z,53.53
2018-12-01T09:24:30.935Z,51.13
2018-12-01T09:26:58.425Z,52.10
2018-12-01T09:29:25.964Z,50.60
2018-12-01T09:31:53.514Z,51.00
2018-12-01T09:34:21.109Z,52.93
2018-12-01T09:36:48.623Z,50.97
2018-12-01T09:39:16.032Z,55.90
2018-12-01T09:41:43.561Z,53.20
2018-12-01T09:44:11.065Z,51.70
2018-12-01T09:46:38.500Z,52.90
2018-12-01T09:49:05.979Z,56.00
2018-12-01T09:51:33.431Z,48.67
2018-12-01T09:54:00.836Z,55.63
2018-12-01T09:56:28.265Z,50.17
2018-12-01T09:58:55.701Z,47.80
2018-12-01T10:01:23.157Z,47.80
2018-12-01T10:03:50.641Z,51.70
2018-12-01T10:06:18.167Z,52.50
2018-12-01T10:08:45.711Z,51.90
2018-12-01T10:11:13.272Z,48.70
2018-12-01T10:13:40.837Z,51.53
2018-12-01T10:16:08.308Z,48.20
2018-12-01T10:18:35.774Z,47.87
2018-12-01T10:21:03.410Z,44.93
2018-12-01T10:23:30.837Z,46.50
2018-12-01T10:25:58.268Z,47.83
2018-12-01T10:28:25.690Z,49.47
2018-12-01T10:30:53.109Z,42.93
2018-12-01T10:33:20.534Z,42.23
2018-12-01T10:35:47.988Z,45.67
2018-12-01T10:38:16.112Z,40.60
2018-12-01T10:40:43.577Z,41.23
2018-12-01T10:43:10.973Z,37.30
2018-12-01T10:45:38.412Z,38.93
2018-12-01T10:48:07.305Z,39.23
2018-12-01T10:50:34.763Z,38.80
2018-12-01T10:53:02.185Z,38.20
2018-12-01T10:55:31.525Z,39.07
2018-12-01T10:58:09.165Z,35.57
2018-12-01T11:00:42.456Z,33.30
2018-12-01T11:03:15.622Z,35.90
2018-12-01T11:05:43.545Z,35.30
2018-12-01T11:08:12.532Z,37.27
2018-12-01T11:10:40.023Z,38.03
2018-12-01T11:13:07.446Z,35.00
2018-12-01T11:15:34.981Z,32.40
2018-12-01T11:18:02.480Z,37.97
2018-12-01T11:20:29.911Z,30.30
2018-12-01T11:22:58.164Z,31.37
2018-12-01T11:25:24.930Z,31.27
2018-12-01T11:27:52.389Z,29.50
2018-12-01T11:30:19.853Z,28.60
2018-12-01T11:32:47.538Z,26.53
2018-12-01T11:35:15.001Z,33.03
2018-12-01T11:37:42.478Z,27.53
2018-12-01T11:40:15.278Z,26.90
2018-12-01T11:42:41.804Z,23.63
2018-12-01T11:45:12.252Z,28.23
2018-12-01T11:47:39.754Z,26.87
2018-12-01T11:50:15.770Z,24.53
2018-12-01T11:52:43.790Z,24.10
2018-12-01T11:55:19.335Z,23.73
2018-12-01T11:57:46.817Z,25.40
2018-12-01T12:00:17.017Z,26.73
2018-12-01T12:02:44.785Z,24.20
2018-12-01T12:05:13.293Z,24.00
2018-12-01T12:07:52.285Z,21.83
2018-12-01T12:10:19.713Z,21.53
2018-12-01T12:12:47.257Z,24.03
2018-12-01T12:15:14.824Z,18.80
2018-12-01T12:17:43.691Z,22.70
2018-12-01T12:20:11.156Z,21.53
2018-12-01T12:22:38.655Z,21.50
2018-12-01T12:25:07.708Z,20.83
2018-12-01T12:27:35.153Z,20.70
2018-12-01T12:30:03.513Z,20.70
2018-12-01T12:32:31.048Z,22.73
2018-12-01T12:34:58.465Z,25.10
2018-12-01T12:37:25.900Z,25.53
2018-12-01T12:39:53.317Z,24.43
2018-12-01T12:42:20.770Z,22.47
2018-12-01T12:44:48.201Z,21.53
2018-12-01T12:47:15.642Z,18.97
2018-12-01T12:49:43.044Z,20.57
2018-12-01T12:52:10.485Z,19.47
2018-12-01T12:54:37.916Z,18.73
2018-12-01T12:57:05.391Z,26.63
2018-12-01T12:59:32.792Z,24.00
2018-12-01T13:02:00.305Z,21.73
2018-12-01T13:04:27.788Z,23.70
2018-12-01T13:06:55.199Z,20.50
2018-12-01T13:09:22.777Z,19.47
2018-12-01T13:11:50.191Z,24.47
2018-12-01T13:14:17.690Z,19.63
2018-12-01T13:16:45.152Z,22.17
2018-12-01T13:19:12.583Z,23.53
2018-12-01T13:21:40.086Z,19.80
2018-12-01T13:24:07.523Z,20.83
2018-12-01T13:26:34.997Z,16.27
2018-12-01T13:29:03.104Z,19.87
2018-12-01T13:31:30.602Z,18.90
2018-12-01T13:33:58.060Z,17.57
2018-12-01T13:36:25.541Z,15.57
2018-12-01T13:38:53.025Z,15.03
2018-12-01T13:41:20.436Z,16.47
2018-12-01T13:43:47.980Z,14.30
2018-12-01T13:46:15.480Z,14.40
2018-12-01T13:48:42.933Z,13.70
2018-12-01T13:51:10.424Z,12.77
2018-12-01T13:53:37.860Z,14.13
2018-12-01T13:56:05.352Z,12.73
2018-12-01T13:58:32.749Z,15.43
2018-12-01T14:01:00.198Z,15.47
2018-12-01T14:03:27.605Z,15.00
2018-12-01T14:05:55.080Z,14.03
2018-12-01T14:08:22.483Z,14.67
2018-12-01T14:10:50.841Z,12.73
2018-12-01T14:13:18.307Z,12.27
2018-12-01T14:15:45.797Z,12.00
2018-12-01T14:18:13.680Z,14.07
2018-12-01T14:20:41.154Z,12.23
2018-12-01T14:23:08.638Z,10.73
2018-12-01T14:25:36.117Z,11.90
2018-12-01T14:28:07.902Z,13.37
2018-12-01T14:30:35.457Z,11.80
2018-12-01T14:33:02.938Z,12.83
2018-12-01T14:35:33.633Z,11.97
2018-12-01T14:38:07.541Z,12.50
2018-12-01T14:40:35.474Z,11.50
2018-12-01T14:43:02.942Z,11.80
2018-12-01T14:45:30.602Z,12.33
2018-12-01T14:47:58.425Z,14.73
2018-12-01T14:50:26.275Z,11.70
2018-12-01T14:52:53.794Z,11.70
2018-12-01T14:55:21.229Z,11.80
2018-12-01T14:57:48.645Z,12.37
2018-12-01T15:00:21.011Z,13.70
2018-12-01T15:02:49.322Z,11.30
2018-12-01T15:05:16.740Z,12.87
2018-12-01T15:07:44.709Z,14.67
2018-12-01T15:10:15.380Z,13.67
2018-12-01T15:12:42.975Z,9.93
2018-12-01T15:15:11.601Z,14.43
2018-12-01T15:17:39.036Z,11.40
2018-12-01T15:20:09.122Z,12.67
2018-12-01T15:22:36.611Z,10.10
2018-12-01T15:25:05.527Z,10.40
2018-12-01T15:27:33.083Z,10.80
2018-12-01T15:30:00.494Z,11.43
2018-12-01T15:32:27.952Z,11.20
2018-12-01T15:34:55.481Z,9.17
2018-12-01T15:37:22.920Z,13.27
2018-12-01T15:39:50.361Z,12.93
2018-12-01T15:42:17.877Z,14.90
2018-12-01T15:44:45.336Z,13.47
2018-12-01T15:47:12.780Z,12.17
2018-12-01T15:49:40.233Z,13.10
2018-12-01T15:52:07.632Z,11.63
2018-12-01T15:54:35.096Z,10.10
2018-12-01T15:57:02.546Z,9.53
2018-12-01T15:59:30.009Z,10.67
2018-12-01T16:01:57.477Z,12.67
2018-12-01T16:04:25.026Z,12.07
2018-12-01T16:06:52.498Z,11.10
2018-12-01T16:09:20.023Z,11.00
2018-12-01T16:11:47.492Z,11.20
2018-12-01T16:14:14.985Z,11.90
2018-12-01T16:16:42.529Z,12.80
2018-12-01T16:19:09.973Z,10.33
2018-12-01T16:21:37.483Z,12.90
2018-12-01T16:24:05.149Z,11.50
2018-12-01T16:26:32.625Z,10.97
2018-12-01T16:29:00.077Z,13.93
2018-12-01T16:31:27.513Z,13.53
2018-12-01T16:33:54.992Z,12.50
2018-12-01T16:36:22.435Z,14.40
2018-12-01T16:38:50.193Z,11.47
2018-12-01T16:41:20.921Z,14.20
2018-12-01T16:43:48.437Z,10.43
2018-12-01T16:46:16.036Z,11.43
2018-12-01T16:48:43.532Z,10.97
2018-12-01T16:51:10.936Z,12.53
2018-12-01T16:53:38.481Z,14.27
2018-12-01T16:56:05.946Z,12.77
2018-12-01T16:58:33.421Z,15.27
2018-12-01T17:01:00.948Z,14.90
2018-12-01T17:03:28.478Z,14.87
2018-12-01T17:05:57.388Z,13.23
2018-12-01T17:08:24.838Z,11.93
2018-12-01T17:10:52.305Z,12.37
2018-12-01T17:13:19.893Z,14.80
2018-12-01T17:15:47.377Z,15.07
2018-12-01T17:18:14.784Z,13.33
2018-12-01T17:20:42.415Z,14.30
2018-12-01T17:23:12.605Z,19.53
2018-12-01T17:25:40.075Z,14.00
2018-12-01T17:28:10.475Z,18.90
2018-12-01T17:30:37.949Z,13.00
2018-12-01T17:33:06.179Z,12.73
2018-12-01T17:35:33.666Z,14.80
2018-12-01T17:38:03.369Z,12.30
2018-12-01T17:40:36.373Z,11.33
2018-12-01T17:43:05.536Z,12.80
2018-12-01T17:45:32.961Z,12.30
2018-12-01T17:48:00.417Z,13.30
2018-12-01T17:50:27.900Z,15.23
2018-12-01T17:52:56.173Z,14.40
2018-12-01T17:55:25.355Z,11.53
2018-12-01T17:57:53.120Z,13.37
2018-12-01T18:00:23.856Z,15.40
2018-12-01T18:02:52.859Z,11.23
2018-12-01T18:05:24.370Z,15.30
2018-12-01T18:07:52.061Z,14.40
2018-12-01T18:10:19.336Z,12.30
2018-12-01T18:12:46.740Z,15.00
2018-12-01T18:15:15.676Z,13.20
2018-12-01T18:17:43.110Z,15.80
2018-12-01T18:20:16.261Z,11.30
2018-12-01T18:22:45.070Z,12.37
2018-12-01T18:25:12.520Z,13.30
2018-12-01T18:27:39.945Z,17.60
2018-12-01T18:30:12.155Z,13.20
2018-12-01T18:32:39.613Z,11.80
2018-12-01T18:35:07.596Z,10.20
2018-12-01T18:37:35.293Z,10.83
2018-12-01T18:40:06.153Z,16.70
2018-12-01T18:42:33.609Z,11.87
2018-12-01T18:45:01.641Z,10.90
2018-12-01T18:47:28.573Z,10.93
2018-12-01T18:49:56.098Z,12.07
2018-12-01T18:52:23.575Z,11.00
2018-12-01T18:54:51.000Z,11.13
2018-12-01T18:57:18.477Z,13.20
2018-12-01T18:59:45.899Z,14.63
2018-12-01T19:02:13.313Z,13.20
2018-12-01T19:04:40.807Z,11.93
2018-12-01T19:07:08.273Z,10.30
2018-12-01T19:09:35.714Z,10.47
2018-12-01T19:12:03.184Z,12.13
2018-12-01T19:14:30.572Z,11.13
2018-12-01T19:16:58.082Z,12.50
2018-12-01T19:19:25.486Z,9.50
2018-12-01T19:21:52.941Z,10.77
2018-12-01T19:24:20.349Z,12.77
2018-12-01T19:26:47.897Z,9.30
2018-12-01T19:29:15.312Z,11.00
2018-12-01T19:31:42.770Z,12.17
2018-12-01T19:34:10.205Z,10.30
2018-12-01T19:36:37.637Z,11.17
2018-12-01T19:39:06.835Z,11.47
2018-12-01T19:41:34.285Z,9.40
2018-12-01T19:44:01.758Z,10.77
2018-12-01T19:46:29.254Z,12.30
2018-12-01T19:48:56.709Z,11.67
2018-12-01T19:51:24.169Z,10.60
2018-12-01T19:53:51.602Z,9.73
2018-12-01T19:56:19.029Z,11.20
2018-12-01T19:58:46.480Z,13.60
2018-12-01T20:01:13.977Z,10.33
2018-12-01T20:03:41.425Z,8.97
2018-12-01T20:06:08.879Z,11.80
2018-12-01T20:08:36.272Z,8.70
2018-12-01T20:11:06.149Z,9.87
2018-12-01T20:13:38.117Z,15.43
2018-12-01T20:16:42.026Z,10.00
2018-12-01T20:19:09.684Z,12.27
2018-12-01T20:21:37.123Z,10.20
2018-12-01T20:24:05.952Z,14.03
2018-12-01T20:26:33.521Z,11.17
2018-12-01T20:29:01.244Z,10.13
2018-12-01T20:31:28.691Z,9.13
2018-12-01T20:33:58.195Z,9.87
2018-12-01T20:36:30.088Z,11.00
2018-12-01T20:39:18.225Z,9.87
2018-12-01T20:41:45.697Z,8.77
2018-12-01T20:44:13.157Z,10.40
2018-12-01T20:46:40.585Z,9.20
2018-12-01T20:49:08.128Z,10.87
2018-12-01T20:51:35.593Z,10.73
2018-12-01T20:54:03.302Z,10.13
2018-12-01T20:56:33.889Z,10.00
2018-12-01T20:59:01.421Z,11.73
2018-12-01T21:01:28.950Z,8.20
2018-12-01T21:03:56.543Z,11.10
2018-12-01T21:06:24.113Z,9.80
2018-12-01T21:08:51.658Z,9.27
2018-12-01T21:11:19.117Z,13.57
2018-12-01T21:13:46.529Z,11.10
2018-12-01T21:16:14.000Z,10.17
2018-12-01T21:18:41.589Z,9.30
2018-12-01T21:21:09.117Z,9.17
2018-12-01T21:23:37.745Z,8.63
2018-12-01T21:26:05.180Z,9.37
2018-12-01T21:28:32.613Z,11.10
2018-12-01T21:31:00.099Z,10.60
2018-12-01T21:33:30.309Z,10.03
2018-12-01T21:35:57.882Z,10.40
2018-12-01T21:38:25.341Z,9.33
2018-12-01T21:40:52.810Z,10.40
2018-12-01T21:43:20.331Z,9.43
2018-12-01T21:45:47.805Z,12.57
2018-12-01T21:48:15.295Z,7.97
2018-12-01T21:50:43.883Z,8.80
2018-12-01T21:53:21.014Z,8.77
2018-12-01T21:55:48.473Z,8.43
2018-12-01T21:58:15.922Z,11.50
2018-12-01T22:00:47.701Z,8.00
2018-12-01T22:03:16.034Z,9.67
2018-12-01T22:05:45.188Z,9.07
2018-12-01T22:08:13.967Z,10.20
2018-12-01T22:10:42.252Z,8.43
2018-12-01T22:13:09.736Z,6.90
2018-12-01T22:15:37.364Z,8.23
2018-12-01T22:18:05.093Z,10.87
2018-12-01T22:20:32.760Z,8.60
2018-12-01T22:23:00.172Z,10.50
2018-12-01T22:25:27.695Z,6.83
2018-12-01T22:27:55.147Z,10.80
2018-12-01T22:30:23.433Z,7.80
2018-12-01T22:32:52.614Z,7.70
2018-12-01T22:35:22.065Z,8.50
2018-12-01T22:37:50.214Z,7.57
2018-12-01T22:40:20.618Z,7.97
2018-12-01T22:42:49.426Z,8.30
2018-12-01T22:45:16.840Z,12.07
2018-12-01T22:47:44.286Z,8.47
2018-12-01T22:50:13.129Z,9.27
2018-12-01T22:52:40.828Z,7.70
2018-12-01T22:55:09.882Z,8.43
2018-12-01T22:57:37.304Z,6.97
2018-12-01T23:00:25.592Z,10.33
2018-12-01T23:02:53.062Z,7.93
2018-12-01T23:05:20.488Z,10.87
2018-12-01T23:07:47.975Z,10.23
2018-12-01T23:10:16.127Z,9.00
2018-12-01T23:12:44.762Z,8.30
2018-12-01T23:15:13.274Z,9.53
2018-12-01T23:17:42.234Z,8.10
2018-12-01T23:20:19.758Z,8.23
2018-12-01T23:22:47.748Z,8.63
2018-12-01T23:25:15.172Z,7.80
2018-12-01T23:27:42.604Z,10.40
2018-12-01T23:30:31.630Z,7.43
2018-12-01T23:33:03.440Z,10.17
2018-12-01T23:35:31.253Z,9.78
2018-12-01T23:37:58.856Z,11.40
2018-12-01T23:40:26.300Z,8.00
2018-12-01T23:42:53.881Z,8.07
2018-12-01T23:45:21.689Z,9.60
2018-12-01T23:47:50.261Z,12.70
2018-12-01T23:50:26.214Z,8.03
2018-12-01T23:53:00.765Z,8.37
2018-12-01T23:55:28.189Z,9.73
2018-12-01T23:57:55.670Z,8.57
